createdAt,value
2023-05-21T00:00:44.710Z,16.20
2023-05-21T00:03:14.504Z,15.85
2023-05-21T00:05:41.699Z,17.10
2023-05-21T00:08:08.814Z,16.83
2023-05-21T00:10:35.880Z,15.68
2023-05-21T00:13:05.416Z,16.50
2023-05-21T00:15:32.558Z,16.13
2023-05-21T00:17:59.608Z,16.33
2023-05-21T00:20:26.977Z,16.83
2023-05-21T00:22:54.228Z,16.93
2023-05-21T00:25:21.247Z,16.58
2023-05-21T00:27:51.383Z,17.13
2023-05-21T00:30:18.487Z,16.77
2023-05-21T00:32:47.577Z,15.88
2023-05-21T00:35:15.144Z,17.33
2023-05-21T00:37:42.611Z,16.58
2023-05-21T00:40:11.516Z,17.08
2023-05-21T00:42:42.453Z,17.30
2023-05-21T00:45:10.606Z,17.13
2023-05-21T00:47:37.900Z,17.65
2023-05-21T00:50:06.384Z,16.80
2023-05-21T00:52:33.513Z,15.95
2023-05-21T00:55:00.630Z,15.98
2023-05-21T00:57:27.760Z,16.27
2023-05-21T00:59:54.968Z,16.60
2023-05-21T01:02:24.417Z,15.57
2023-05-21T01:04:56.281Z,15.60
2023-05-21T01:07:23.594Z,15.88
2023-05-21T01:09:50.788Z,15.70
2023-05-21T01:12:19.137Z,16.73
2023-05-21T01:14:46.390Z,15.55
2023-05-21T01:17:16.219Z,17.35
2023-05-21T01:19:44.723Z,17.40
2023-05-21T01:22:15.751Z,16.58
2023-05-21T01:24:47.651Z,16.30
2023-05-21T01:27:14.694Z,16.35
2023-05-21T01:29:41.965Z,17.20
2023-05-21T01:32:14.434Z,17.00
2023-05-21T01:34:51.272Z,16.63
2023-05-21T01:37:27.126Z,17.08
2023-05-21T01:40:06.306Z,18.90
2023-05-21T01:42:36.174Z,17.52
2023-05-21T01:45:06.331Z,18.63
2023-05-21T01:47:34.918Z,17.05
2023-05-21T01:50:03.910Z,16.40
2023-05-21T01:52:31.415Z,17.15
2023-05-21T01:55:00.201Z,15.40
2023-05-21T01:57:27.317Z,16.65
2023-05-21T01:59:56.316Z,17.27
2023-05-21T02:02:23.625Z,16.60
2023-05-21T02:04:51.525Z,16.50
2023-05-21T02:07:18.872Z,16.95
2023-05-21T02:09:46.051Z,16.90
2023-05-21T02:12:13.013Z,16.58
2023-05-21T02:14:40.709Z,17.10
2023-05-21T02:17:08.218Z,17.53
2023-05-21T02:19:35.854Z,19.17
2023-05-21T02:22:02.906Z,18.40
2023-05-21T02:24:29.888Z,17.75
2023-05-21T02:26:58.837Z,19.58
2023-05-21T02:29:26.099Z,18.77
2023-05-21T02:31:53.226Z,19.00
2023-05-21T02:34:20.827Z,17.88
2023-05-21T02:36:54.660Z,18.70
2023-05-21T02:39:22.287Z,18.38
2023-05-21T02:41:49.497Z,19.20
2023-05-21T02:44:16.849Z,18.85
2023-05-21T02:46:44.517Z,17.88
2023-05-21T02:49:12.563Z,19.15
2023-05-21T02:51:41.487Z,18.58
2023-05-21T02:54:08.728Z,18.80
2023-05-21T02:56:35.760Z,17.15
2023-05-21T02:59:02.921Z,16.83
2023-05-21T03:01:30.131Z,17.00
2023-05-21T03:03:57.337Z,17.83
2023-05-21T03:06:24.593Z,17.83
2023-05-21T03:08:51.671Z,19.33
2023-05-21T03:11:20.174Z,18.98
2023-05-21T03:13:47.288Z,20.65
2023-05-21T03:16:14.350Z,19.90
2023-05-21T03:18:41.585Z,19.85
2023-05-21T03:21:08.738Z,19.30
2023-05-21T03:23:35.795Z,18.10
2023-05-21T03:26:02.836Z,16.25
2023-05-21T03:28:29.993Z,17.52
2023-05-21T03:31:00.366Z,18.17
2023-05-21T03:33:56.412Z,17.40
2023-05-21T03:36:27.625Z,16.25
2023-05-21T03:38:56.256Z,18.42
2023-05-21T03:41:23.557Z,18.85
2023-05-21T03:43:55.898Z,18.73
2023-05-21T03:46:26.729Z,18.83
2023-05-21T03:48:58.239Z,20.02
2023-05-21T03:51:27.582Z,21.55
2023-05-21T03:53:54.996Z,23.13
2023-05-21T03:56:23.047Z,26.10
2023-05-21T03:58:50.645Z,25.33
2023-05-21T04:01:18.194Z,26.90
2023-05-21T04:03:46.373Z,27.10
2023-05-21T04:06:16.087Z,26.73
2023-05-21T04:08:43.443Z,26.25
2023-05-21T04:11:10.695Z,27.40
2023-05-21T04:13:38.904Z,26.03
2023-05-21T04:16:08.983Z,27.13
2023-05-21T04:18:36.464Z,25.02
2023-05-21T04:21:03.889Z,30.40
2023-05-21T04:23:30.938Z,29.15
2023-05-21T04:25:59.178Z,28.42
2023-05-21T04:28:28.797Z,28.17
2023-05-21T04:31:03.456Z,27.75
2023-05-21T04:33:30.782Z,27.52
2023-05-21T04:35:58.074Z,27.20
2023-05-21T04:38:25.984Z,28.23
2023-05-21T04:40:53.572Z,29.50
2023-05-21T04:43:27.190Z,28.07
2023-05-21T04:45:57.370Z,29.75
2023-05-21T04:48:27.264Z,29.67
2023-05-21T04:50:56.098Z,27.27
2023-05-21T04:53:26.140Z,27.30
2023-05-21T04:55:53.619Z,26.55
2023-05-21T04:58:21.183Z,26.52
2023-05-21T05:00:51.059Z,24.60
2023-05-21T05:03:18.657Z,24.50
2023-05-21T05:05:46.194Z,24.23
2023-05-21T05:08:15.870Z,24.40
2023-05-21T05:10:43.707Z,24.02
2023-05-21T05:13:10.892Z,23.47
2023-05-21T05:15:38.221Z,23.17
2023-05-21T05:18:08.545Z,21.73
2023-05-21T05:20:35.860Z,22.13
2023-05-21T05:23:02.928Z,21.43
2023-05-21T05:25:29.947Z,21.88
2023-05-21T05:27:57.646Z,22.58
2023-05-21T05:30:24.647Z,21.30
2023-05-21T05:33:00.186Z,21.10
2023-05-21T05:35:30.509Z,20.80
2023-05-21T05:37:57.576Z,21.55
2023-05-21T05:40:24.834Z,20.80
2023-05-21T05:42:52.792Z,21.00
2023-05-21T05:45:20.552Z,20.60
2023-05-21T05:50:16.372Z,21.83
2023-05-21T05:52:43.359Z,22.98
2023-05-21T05:55:12.781Z,21.77
2023-05-21T05:57:39.794Z,22.13
2023-05-21T06:00:12.615Z,22.35
2023-05-21T06:02:40.249Z,23.02
2023-05-21T06:05:08.455Z,21.88
2023-05-21T06:07:38.458Z,22.42
2023-05-21T06:10:08.844Z,21.05
2023-05-21T06:12:36.224Z,21.40
2023-05-21T06:15:04.113Z,22.25
2023-05-21T06:17:31.984Z,21.65
2023-05-21T06:19:59.117Z,21.15
2023-05-21T06:22:28.332Z,21.95
2023-05-21T06:24:56.231Z,21.42
2023-05-21T06:27:23.146Z,21.45
2023-05-21T06:29:50.726Z,20.73
2023-05-21T06:32:18.714Z,21.52
2023-05-21T06:34:46.132Z,21.05
2023-05-21T06:37:13.564Z,20.35
2023-05-21T06:39:40.719Z,20.10
2023-05-21T06:42:08.017Z,20.30
2023-05-21T06:44:52.545Z,19.13
2023-05-21T06:47:28.229Z,19.85
2023-05-21T06:52:23.289Z,18.90
2023-05-21T06:54:50.738Z,19.58
2023-05-21T06:57:18.849Z,19.10
2023-05-21T06:59:45.818Z,18.63
2023-05-21T07:02:13.009Z,18.00
2023-05-21T07:04:40.137Z,17.58
2023-05-21T07:07:07.493Z,17.67
2023-05-21T07:09:34.478Z,24.25
2023-05-21T07:12:02.523Z,18.25
2023-05-21T07:14:30.067Z,17.42
2023-05-21T07:16:57.115Z,17.52
2023-05-21T07:19:24.542Z,17.85
2023-05-21T07:21:51.540Z,17.50
2023-05-21T07:24:18.812Z,17.90
2023-05-21T07:26:46.207Z,17.85
2023-05-21T07:29:13.893Z,17.48
2023-05-21T07:31:41.264Z,16.42
2023-05-21T07:34:08.450Z,16.40
2023-05-21T07:36:35.620Z,16.80
2023-05-21T07:39:04.973Z,15.20
2023-05-21T07:41:32.906Z,16.17
2023-05-21T07:44:02.918Z,16.67
2023-05-21T07:46:32.425Z,15.30
2023-05-21T07:48:59.699Z,17.30
2023-05-21T07:51:27.572Z,16.83
2023-05-21T07:53:55.369Z,15.55
2023-05-21T07:56:36.594Z,14.95
2023-05-21T07:59:05.718Z,14.60
2023-05-21T08:01:33.209Z,16.23
2023-05-21T08:04:07.242Z,15.38
2023-05-21T08:06:37.725Z,16.40
2023-05-21T08:09:06.408Z,14.95
2023-05-21T08:11:34.106Z,13.80
2023-05-21T08:14:02.012Z,14.45
2023-05-21T08:16:30.730Z,13.93
2023-05-21T08:18:57.866Z,14.57
2023-05-21T08:21:25.079Z,13.63
2023-05-21T08:23:55.217Z,14.15
2023-05-21T08:26:22.244Z,13.98
2023-05-21T08:28:49.363Z,13.93
2023-05-21T08:31:18.793Z,13.82
2023-05-21T08:33:53.523Z,13.20
2023-05-21T08:36:29.068Z,12.98
2023-05-21T08:39:02.026Z,13.07
2023-05-21T08:41:36.309Z,13.63
2023-05-21T08:44:04.355Z,12.32
2023-05-21T08:46:36.738Z,12.23
2023-05-21T08:49:03.907Z,12.77
2023-05-21T08:51:32.615Z,12.52
2023-05-21T08:54:01.637Z,13.15
2023-05-21T08:56:32.514Z,12.27
2023-05-21T08:59:00.190Z,12.57
2023-05-21T09:01:34.127Z,12.25
2023-05-21T09:04:20.904Z,11.52
2023-05-21T09:06:52.244Z,11.43
2023-05-21T09:09:34.330Z,10.35
2023-05-21T09:12:02.132Z,11.18
2023-05-21T09:14:33.157Z,11.52
2023-05-21T09:17:14.821Z,11.82
2023-05-21T09:20:15.835Z,11.25
2023-05-21T09:22:50.711Z,10.23
2023-05-21T09:25:22.976Z,9.90
2023-05-21T09:27:51.038Z,9.98
2023-05-21T09:30:21.871Z,9.30
2023-05-21T09:32:58.391Z,9.40
2023-05-21T09:35:26.943Z,8.57
2023-05-21T09:37:54.187Z,9.15
2023-05-21T09:40:23.598Z,10.20
2023-05-21T09:42:55.231Z,9.07
2023-05-21T09:45:26.472Z,8.55
2023-05-21T09:47:56.809Z,8.05
2023-05-21T09:52:53.093Z,7.85
2023-05-21T09:55:23.424Z,8.48
2023-05-21T09:57:53.206Z,8.15
2023-05-21T10:00:25.153Z,7.18
2023-05-21T10:02:57.030Z,7.60
2023-05-21T10:05:28.842Z,7.38
2023-05-21T10:08:03.900Z,7.50
2023-05-21T10:10:32.485Z,7.72
2023-05-21T10:13:04.145Z,9.32
2023-05-21T10:15:35.509Z,8.73
2023-05-21T10:18:03.911Z,7.25
2023-05-21T10:20:32.073Z,7.00
2023-05-21T10:23:00.203Z,6.70
2023-05-21T10:25:29.136Z,6.70
2023-05-21T10:27:57.322Z,6.18
2023-05-21T10:30:25.197Z,6.63
2023-05-21T10:32:55.691Z,6.00
2023-05-21T10:35:23.556Z,6.43
2023-05-21T10:40:20.381Z,6.22
2023-05-21T10:43:28.785Z,6.15
2023-05-21T10:46:27.056Z,5.65
2023-05-21T10:49:18.293Z,6.00
2023-05-21T10:52:09.144Z,6.07
2023-05-21T10:55:06.414Z,6.43
2023-05-21T10:58:05.463Z,6.15
2023-05-21T11:00:32.729Z,5.50
2023-05-21T11:03:03.226Z,5.50
2023-05-21T11:05:51.781Z,5.45
2023-05-21T11:08:25.798Z,5.60
2023-05-21T11:10:58.391Z,5.50
2023-05-21T11:13:27.248Z,5.30
2023-05-21T11:16:01.508Z,4.97
2023-05-21T11:18:38.143Z,4.85
2023-05-21T11:21:16.041Z,5.70
2023-05-21T11:23:52.703Z,5.03
2023-05-21T11:26:23.845Z,4.82
2023-05-21T11:29:06.605Z,5.00
2023-05-21T11:31:38.758Z,5.30
2023-05-21T11:34:28.321Z,5.15
2023-05-21T11:37:17.702Z,4.70
2023-05-21T11:39:45.419Z,4.50
2023-05-21T11:42:12.872Z,4.72
2023-05-21T11:44:46.838Z,4.30
2023-05-21T11:47:15.406Z,4.45
2023-05-21T11:49:43.088Z,4.07
2023-05-21T11:52:12.098Z,4.32
2023-05-21T11:54:48.527Z,4.72
2023-05-21T11:57:17.859Z,4.38
2023-05-21T11:59:46.404Z,4.60
2023-05-21T12:04:46.516Z,4.68
2023-05-21T12:07:15.498Z,4.38
2023-05-21T12:09:52.395Z,4.45
2023-05-21T12:12:21.619Z,4.53
2023-05-21T12:14:50.982Z,4.80
2023-05-21T12:17:23.059Z,4.72
2023-05-21T12:19:52.967Z,4.35
2023-05-21T12:22:22.061Z,4.32
2023-05-21T12:24:49.285Z,4.47
2023-05-21T12:27:18.369Z,4.53
2023-05-21T12:29:46.666Z,4.70
2023-05-21T12:32:15.166Z,4.22
2023-05-21T12:34:46.798Z,4.78
2023-05-21T12:37:23.341Z,4.25
2023-05-21T12:39:52.211Z,4.75
2023-05-21T12:42:27.245Z,4.80
2023-05-21T12:44:54.929Z,4.50
2023-05-21T12:50:01.953Z,4.50
2023-05-21T12:52:31.034Z,4.20
2023-05-21T12:54:58.512Z,4.45
2023-05-21T12:57:28.335Z,11.48
2023-05-21T12:59:58.290Z,4.70
2023-05-21T13:02:27.510Z,4.72
2023-05-21T13:05:00.177Z,4.03
2023-05-21T13:07:31.941Z,4.28
2023-05-21T13:09:59.982Z,4.55
2023-05-21T13:12:29.442Z,4.32
2023-05-21T13:14:58.898Z,4.60
2023-05-21T13:17:27.540Z,4.13
2023-05-21T13:20:10.075Z,4.05
2023-05-21T13:22:48.015Z,4.63
2023-05-21T13:25:21.335Z,4.55
2023-05-21T13:27:49.836Z,4.25
2023-05-21T13:30:17.080Z,4.13
2023-05-21T13:32:44.288Z,4.10
2023-05-21T13:35:12.238Z,4.35
2023-05-21T13:37:40.835Z,3.97
2023-05-21T13:40:15.082Z,4.28
2023-05-21T13:42:44.152Z,3.78
2023-05-21T13:45:13.782Z,4.38
2023-05-21T13:47:42.119Z,4.30
2023-05-21T13:50:10.131Z,3.90
2023-05-21T13:52:37.860Z,4.13
2023-05-21T13:57:32.614Z,4.22
2023-05-21T14:00:00.361Z,4.88
2023-05-21T14:02:27.609Z,4.28
2023-05-21T14:04:54.829Z,4.00
2023-05-21T14:07:22.357Z,4.03
2023-05-21T14:09:49.966Z,4.47
2023-05-21T14:12:17.758Z,4.13
2023-05-21T14:14:45.192Z,4.65
2023-05-21T14:17:12.560Z,6.38
2023-05-21T14:19:39.759Z,4.45
2023-05-21T14:22:08.361Z,4.40
2023-05-21T14:24:35.862Z,4.47
2023-05-21T14:27:03.937Z,4.60
2023-05-21T14:29:31.382Z,4.50
2023-05-21T14:31:58.728Z,3.90
2023-05-21T14:34:26.108Z,5.03
2023-05-21T14:36:53.659Z,5.70
2023-05-21T14:39:20.827Z,4.22
2023-05-21T14:42:10.815Z,3.80
2023-05-21T14:44:38.188Z,3.58
2023-05-21T14:47:05.569Z,3.90
2023-05-21T14:49:33.164Z,4.20
2023-05-21T14:52:00.601Z,3.90
2023-05-21T14:54:27.890Z,4.10
2023-05-21T14:56:56.043Z,4.00
2023-05-21T14:59:23.442Z,4.18
2023-05-21T15:01:50.892Z,3.78
2023-05-21T15:04:18.206Z,3.90
2023-05-21T15:06:45.516Z,3.95
2023-05-21T15:09:13.157Z,4.13
2023-05-21T15:14:08.878Z,4.50
2023-05-21T15:16:37.237Z,6.43
2023-05-21T15:19:04.954Z,4.80
2023-05-21T15:21:32.178Z,5.13
2023-05-21T15:23:59.308Z,4.78
2023-05-21T15:26:27.034Z,4.60
2023-05-21T15:31:21.216Z,4.32
2023-05-21T15:33:49.039Z,3.80
2023-05-21T15:36:16.212Z,3.75
2023-05-21T15:38:43.241Z,4.00
2023-05-21T15:41:10.355Z,4.28
2023-05-21T15:43:37.375Z,9.15
2023-05-21T15:46:04.917Z,5.50
2023-05-21T15:48:32.973Z,4.63
2023-05-21T15:50:59.982Z,4.05
2023-05-21T15:53:26.970Z,4.25
2023-05-21T15:55:53.927Z,5.30
2023-05-21T15:58:21.088Z,5.93
2023-05-21T16:00:48.475Z,6.20
2023-05-21T16:03:16.029Z,7.20
2023-05-21T16:08:12.187Z,19.92
2023-05-21T16:10:40.070Z,8.40
2023-05-21T16:13:07.275Z,6.88
2023-05-21T16:15:34.613Z,6.72
2023-05-21T16:18:01.893Z,6.13
2023-05-21T16:20:31.045Z,5.32
2023-05-21T16:22:58.690Z,5.55
2023-05-21T16:25:25.687Z,36.45
2023-05-21T16:27:52.866Z,44.97
2023-05-21T16:30:19.997Z,9.55
2023-05-21T16:32:47.226Z,4.32
2023-05-21T16:35:14.558Z,4.15
2023-05-21T16:37:41.725Z,3.67
2023-05-21T16:40:09.335Z,4.03
2023-05-21T16:45:03.474Z,3.53
2023-05-21T16:47:30.812Z,3.55
2023-05-21T16:49:58.698Z,3.67
2023-05-21T16:52:26.620Z,3.60
2023-05-21T16:54:53.898Z,3.60
2023-05-21T16:57:21.355Z,3.55
2023-05-21T17:02:15.943Z,10.60
2023-05-21T17:04:43.319Z,3.65
2023-05-21T17:07:10.327Z,3.10
2023-05-21T17:09:37.365Z,3.50
2023-05-21T17:12:04.635Z,3.45
2023-05-21T17:14:34.833Z,3.50
2023-05-21T17:17:03.504Z,3.65
2023-05-21T17:19:30.766Z,3.88
2023-05-21T17:21:58.176Z,3.67
2023-05-21T17:24:25.364Z,3.50
2023-05-21T17:26:53.794Z,3.75
2023-05-21T17:29:21.016Z,3.70
2023-05-21T17:31:48.344Z,3.85
2023-05-21T17:34:16.611Z,3.88
2023-05-21T17:36:44.162Z,3.67
2023-05-21T17:39:11.292Z,3.78
2023-05-21T17:41:40.103Z,3.88
2023-05-21T17:44:07.306Z,3.67
2023-05-21T17:46:34.711Z,4.07
2023-05-21T17:49:02.446Z,3.70
2023-05-21T17:53:56.929Z,4.20
2023-05-21T17:56:24.121Z,3.88
2023-05-21T17:58:54.414Z,4.32
2023-05-21T18:01:22.885Z,3.50
2023-05-21T18:03:50.166Z,3.67
2023-05-21T18:06:17.581Z,3.58
2023-05-21T18:08:44.670Z,3.63
2023-05-21T18:11:11.965Z,3.58
2023-05-21T18:13:38.980Z,3.53
2023-05-21T18:16:06.158Z,3.60
2023-05-21T18:18:35.317Z,3.90
2023-05-21T18:21:03.054Z,3.92
2023-05-21T18:23:31.277Z,4.07
2023-05-21T18:25:58.583Z,3.65
2023-05-21T18:28:25.618Z,3.78
2023-05-21T18:30:53.335Z,4.18
2023-05-21T18:33:21.300Z,4.32
2023-05-21T18:35:48.433Z,9.30
2023-05-21T18:38:15.657Z,5.17
2023-05-21T18:40:42.831Z,7.40
2023-05-21T18:43:10.991Z,4.55
2023-05-21T18:45:38.595Z,4.15
2023-05-21T18:48:06.091Z,4.18
2023-05-21T18:50:34.526Z,3.88
2023-05-21T18:53:01.875Z,4.10
2023-05-21T18:57:56.980Z,3.93
2023-05-21T19:00:24.453Z,4.20
2023-05-21T19:02:52.754Z,4.47
2023-05-21T19:05:20.097Z,3.97
2023-05-21T19:07:49.834Z,4.25
2023-05-21T19:10:19.827Z,4.05
2023-05-21T19:12:47.122Z,3.95
2023-05-21T19:15:14.621Z,4.17
2023-05-21T19:17:43.289Z,4.03
2023-05-21T19:20:10.754Z,4.00
2023-05-21T19:22:39.031Z,4.05
2023-05-21T19:25:07.101Z,3.80
2023-05-21T19:30:01.298Z,4.07
2023-05-21T19:32:28.873Z,4.13
2023-05-21T19:34:57.495Z,3.90
2023-05-21T19:37:25.232Z,4.15
2023-05-21T19:39:52.412Z,4.00
2023-05-21T19:42:21.374Z,4.03
2023-05-21T19:44:48.828Z,4.10
2023-05-21T19:47:15.965Z,3.67
2023-05-21T19:49:44.255Z,3.90
2023-05-21T19:52:12.406Z,5.13
2023-05-21T19:54:39.593Z,7.22
2023-05-21T19:57:06.962Z,4.70
2023-05-21T19:59:34.146Z,3.35
2023-05-21T20:02:01.291Z,3.70
2023-05-21T20:04:28.480Z,3.77
2023-05-21T20:06:55.673Z,3.90
2023-05-21T20:09:22.978Z,4.37
2023-05-21T20:11:50.098Z,4.10
2023-05-21T20:14:17.245Z,3.70
2023-05-21T20:16:47.094Z,4.10
2023-05-21T20:19:15.211Z,3.47
2023-05-21T20:24:11.288Z,3.50
2023-05-21T20:26:40.098Z,3.60
2023-05-21T20:29:08.176Z,3.40
2023-05-21T20:34:08.981Z,3.70
2023-05-21T20:36:37.065Z,3.65
2023-05-21T20:39:04.989Z,3.40
2023-05-21T20:44:06.657Z,10.25
2023-05-21T20:46:38.444Z,6.35
2023-05-21T20:49:06.235Z,4.95
2023-05-21T20:51:34.108Z,3.92
2023-05-21T20:54:01.146Z,3.75
2023-05-21T20:58:59.449Z,3.65
2023-05-21T21:01:31.011Z,3.47
2023-05-21T21:03:58.267Z,3.60
2023-05-21T21:06:26.398Z,3.38
2023-05-21T21:11:23.477Z,3.72
2023-05-21T21:13:51.050Z,3.72
2023-05-21T21:16:18.346Z,3.58
2023-05-21T21:18:47.094Z,3.63
2023-05-21T21:21:14.618Z,3.80
2023-05-21T21:23:44.774Z,3.30
2023-05-21T21:26:11.790Z,4.07
2023-05-21T21:28:38.796Z,3.60
2023-05-21T21:31:05.833Z,3.28
2023-05-21T21:33:32.904Z,3.40
2023-05-21T21:36:00.803Z,4.07
2023-05-21T21:38:27.771Z,3.53
2023-05-21T21:40:55.066Z,3.67
2023-05-21T21:43:22.135Z,3.60
2023-05-21T21:45:49.495Z,6.97
2023-05-21T21:48:16.859Z,13.77
2023-05-21T21:50:43.837Z,5.90
2023-05-21T21:53:12.724Z,4.40
2023-05-21T21:55:40.077Z,4.13
2023-05-21T21:58:07.291Z,7.20
2023-05-21T22:00:34.778Z,13.00
2023-05-21T22:03:02.132Z,6.70
2023-05-21T22:05:30.873Z,4.95
2023-05-21T22:07:59.096Z,3.80
2023-05-21T22:10:27.393Z,3.45
2023-05-21T22:12:54.564Z,3.33
2023-05-21T22:15:25.033Z,3.85
2023-05-21T22:17:52.488Z,3.60
2023-05-21T22:20:20.189Z,4.00
2023-05-21T22:22:47.515Z,3.13
2023-05-21T22:25:17.834Z,3.88
2023-05-21T22:27:45.072Z,3.65
2023-05-21T22:30:12.630Z,3.65
2023-05-21T22:32:40.139Z,3.50
2023-05-21T22:35:08.072Z,3.60
2023-05-21T22:40:06.907Z,3.90
2023-05-21T22:42:38.664Z,3.42
2023-05-21T22:45:06.761Z,3.63
2023-05-21T22:47:37.046Z,3.53
2023-05-21T22:50:04.499Z,3.50
2023-05-21T22:52:31.896Z,3.80
2023-05-21T22:55:00.719Z,3.25
2023-05-21T22:57:28.002Z,3.50
2023-05-21T22:59:55.148Z,3.67
2023-05-21T23:02:23.612Z,3.90
2023-05-21T23:04:50.990Z,3.60
2023-05-21T23:07:18.445Z,3.88
2023-05-21T23:09:45.783Z,3.65
2023-05-21T23:12:12.860Z,3.95
2023-05-21T23:14:40.100Z,3.90
2023-05-21T23:17:07.626Z,3.67
2023-05-21T23:19:34.760Z,3.85
2023-05-21T23:22:02.138Z,3.90
2023-05-21T23:24:29.643Z,3.47
2023-05-21T23:27:01.877Z,3.65
2023-05-21T23:29:30.375Z,3.83
2023-05-21T23:31:57.642Z,4.07
2023-05-21T23:34:24.906Z,3.80
2023-05-21T23:36:52.623Z,3.47
2023-05-21T23:39:19.676Z,3.90
2023-05-21T23:41:46.823Z,3.90
2023-05-21T23:44:15.455Z,3.77
2023-05-21T23:46:45.842Z,3.55
2023-05-21T23:49:13.236Z,3.80
2023-05-21T23:51:40.624Z,3.60
2023-05-21T23:54:08.108Z,3.87
2023-05-21T23:56:35.482Z,3.80
2023-05-21T23:59:02.555Z,3.70
